createdAt,value
2023-02-13T00:01:01.959Z,99.90
2023-02-13T00:03:30.292Z,99.90
2023-02-13T00:05:58.641Z,99.90
2023-02-13T00:08:26.940Z,99.90
2023-02-13T00:10:56.812Z,99.90
2023-02-13T00:15:57.842Z,99.90
2023-02-13T00:18:26.138Z,99.90
2023-02-13T00:23:32.285Z,99.90
2023-02-13T00:28:30.725Z,1.00
2023-02-13T00:31:04.843Z,1.00
2023-02-13T00:33:33.194Z,1.00
2023-02-13T00:36:06.560Z,1.00
2023-02-13T00:38:34.912Z,1.00
2023-02-13T00:41:04.559Z,1.00
2023-02-13T00:43:32.896Z,1.00
2023-02-13T00:46:01.261Z,1.00
2023-02-13T00:48:30.511Z,1.00
2023-02-13T00:50:59.187Z,1.00
2023-02-13T00:53:27.728Z,1.00
2023-02-13T00:55:55.994Z,1.00
2023-02-13T00:58:25.674Z,1.00
2023-02-13T01:00:54.125Z,1.00
2023-02-13T01:03:22.492Z,1.00
2023-02-13T01:05:51.039Z,1.00
2023-02-13T01:08:19.786Z,1.00
2023-02-13T01:10:48.474Z,1.00
2023-02-13T01:13:18.528Z,1.00
2023-02-13T01:15:48.567Z,1.00
2023-02-13T01:18:17.238Z,1.00
2023-02-13T01:20:45.713Z,1.00
2023-02-13T01:23:13.986Z,1.00
2023-02-13T01:25:42.667Z,1.00
2023-02-13T01:28:11.000Z,1.00
2023-02-13T01:30:39.379Z,1.00
2023-02-13T01:33:11.023Z,1.00
2023-02-13T01:35:40.690Z,1.00
2023-02-13T01:38:08.911Z,1.00
2023-02-13T01:40:37.217Z,1.00
2023-02-13T01:43:05.429Z,1.00
2023-02-13T01:45:33.997Z,1.00
2023-02-13T01:48:05.730Z,1.00
2023-02-13T01:50:36.498Z,1.00
2023-02-13T01:53:06.932Z,1.00
2023-02-13T01:55:35.480Z,1.00
2023-02-13T01:58:06.182Z,1.00
2023-02-13T02:00:34.438Z,1.00
2023-02-13T02:03:14.013Z,1.00
2023-02-13T02:05:43.729Z,1.00
2023-02-13T02:08:13.353Z,4.20
2023-02-13T02:10:41.600Z,1.00
2023-02-13T02:13:12.412Z,1.00
2023-02-13T02:15:40.919Z,1.00
2023-02-13T02:18:14.313Z,1.00
2023-02-13T02:21:14.909Z,1.00
2023-02-13T02:23:54.096Z,1.00
2023-02-13T02:27:00.768Z,1.00
2023-02-13T02:29:52.019Z,1.00
2023-02-13T02:32:27.106Z,3.30
2023-02-13T02:34:57.895Z,4.80
2023-02-13T02:37:41.984Z,9.10
2023-02-13T02:40:15.624Z,11.40
2023-02-13T02:42:49.214Z,13.70
2023-02-13T02:45:20.505Z,15.60
2023-02-13T02:48:09.443Z,17.00
2023-02-13T02:50:39.061Z,17.00
2023-02-13T02:53:12.090Z,20.00
2023-02-13T02:55:42.685Z,21.70
2023-02-13T02:58:31.341Z,25.70
2023-02-13T03:01:17.151Z,31.20
2023-02-13T03:04:04.467Z,37.10
2023-02-13T03:06:36.106Z,39.90
2023-02-13T03:09:25.448Z,42.90
2023-02-13T03:12:11.886Z,44.00
2023-02-13T03:14:40.213Z,47.90
2023-02-13T03:17:27.641Z,52.20
2023-02-13T03:20:19.826Z,54.30
2023-02-13T03:22:56.499Z,57.30
2023-02-13T03:25:34.574Z,61.40
2023-02-13T03:28:25.330Z,66.40
2023-02-13T03:31:01.828Z,67.00
2023-02-13T03:33:37.729Z,75.60
2023-02-13T03:36:29.545Z,78.40
2023-02-13T03:38:59.513Z,78.10
2023-02-13T03:41:31.442Z,78.00
2023-02-13T03:44:12.607Z,78.40
2023-02-13T03:46:42.302Z,82.60
2023-02-13T03:49:30.515Z,90.00
2023-02-13T03:52:01.310Z,90.80
2023-02-13T03:54:49.677Z,90.90
2023-02-13T03:57:37.308Z,90.60
2023-02-13T04:00:06.872Z,91.70
2023-02-13T04:02:35.971Z,92.10
2023-02-13T04:05:08.181Z,92.40
2023-02-13T04:07:37.825Z,92.70
2023-02-13T04:10:07.504Z,93.70
2023-02-13T04:12:39.651Z,95.20
2023-02-13T04:15:10.573Z,97.10
2023-02-13T04:17:40.326Z,98.30
2023-02-13T04:20:09.459Z,98.80
2023-02-13T04:22:44.832Z,99.90
2023-02-13T04:25:13.417Z,99.90
2023-02-13T04:27:41.683Z,99.90
2023-02-13T04:30:10.981Z,99.90
2023-02-13T04:32:39.205Z,99.90
2023-02-13T04:35:07.990Z,99.90
2023-02-13T04:37:36.211Z,99.90
2023-02-13T04:40:06.778Z,99.90
2023-02-13T04:42:35.001Z,99.90
2023-02-13T04:45:03.281Z,99.90
2023-02-13T04:47:31.493Z,99.90
2023-02-13T04:49:59.783Z,99.90
2023-02-13T04:52:28.095Z,99.90
2023-02-13T04:54:56.360Z,99.90
2023-02-13T04:57:26.066Z,99.90
2023-02-13T04:59:54.343Z,99.90
2023-02-13T05:02:22.556Z,99.90
2023-02-13T05:04:50.832Z,99.90
2023-02-13T05:07:19.074Z,99.90
2023-02-13T05:09:47.373Z,99.90
2023-02-13T05:12:15.589Z,99.90
2023-02-13T05:14:45.463Z,99.90
2023-02-13T05:17:13.764Z,99.90
2023-02-13T05:19:42.048Z,99.90
2023-02-13T05:22:28.250Z,99.90
2023-02-13T05:24:56.538Z,99.90
2023-02-13T05:27:24.778Z,99.90
2023-02-13T05:29:53.475Z,99.90
2023-02-13T05:32:21.711Z,99.90
2023-02-13T05:34:49.974Z,99.90
2023-02-13T05:37:18.194Z,99.90
2023-02-13T05:39:46.525Z,99.90
2023-02-13T05:42:14.751Z,99.90
2023-02-13T05:44:43.025Z,99.90
2023-02-13T05:47:12.701Z,99.90
2023-02-13T05:49:40.962Z,99.90
2023-02-13T05:52:09.226Z,99.90
2023-02-13T05:54:38.489Z,99.90
2023-02-13T05:57:06.737Z,99.90
2023-02-13T05:59:35.125Z,99.90
2023-02-13T06:02:03.364Z,99.90
2023-02-13T06:04:32.998Z,99.90
2023-02-13T06:07:01.339Z,99.90
2023-02-13T06:09:29.558Z,99.90
2023-02-13T06:11:57.855Z,99.90
2023-02-13T06:14:26.067Z,99.90
2023-02-13T06:16:54.304Z,99.90
2023-02-13T06:19:22.618Z,99.90
2023-02-13T06:21:52.237Z,99.90
2023-02-13T06:24:20.478Z,99.90
2023-02-13T06:26:48.701Z,99.90
2023-02-13T06:29:16.982Z,99.90
2023-02-13T06:31:45.246Z,99.90
2023-02-13T06:34:13.503Z,99.90
2023-02-13T06:36:42.731Z,99.90
2023-02-13T06:39:12.565Z,99.90
2023-02-13T06:41:40.815Z,99.90
2023-02-13T06:44:09.208Z,99.90
2023-02-13T06:46:37.618Z,99.90
2023-02-13T06:49:05.858Z,99.90
2023-02-13T06:51:34.130Z,99.90
2023-02-13T06:54:02.723Z,99.90
2023-02-13T06:56:32.931Z,99.90
2023-02-13T06:59:01.142Z,99.90
2023-02-13T07:01:29.481Z,99.90
2023-02-13T07:03:57.860Z,99.90
2023-02-13T07:06:26.118Z,99.90
2023-02-13T07:08:55.982Z,99.90
2023-02-13T07:11:24.995Z,99.90
2023-02-13T07:13:54.676Z,99.90
2023-02-13T07:16:22.993Z,99.90
2023-02-13T07:18:51.264Z,99.90
2023-02-13T07:21:19.501Z,99.90
2023-02-13T07:23:47.743Z,99.90
2023-02-13T07:26:16.291Z,99.90
2023-02-13T07:28:44.629Z,99.90
2023-02-13T07:31:14.390Z,99.90
2023-02-13T07:33:42.665Z,99.90
2023-02-13T07:36:11.035Z,99.90
2023-02-13T07:38:39.311Z,99.90
2023-02-13T07:41:07.548Z,99.90
2023-02-13T07:43:35.809Z,99.90
2023-02-13T07:46:04.406Z,99.90
2023-02-13T07:48:34.014Z,99.90
2023-02-13T07:51:02.749Z,99.90
2023-02-13T07:55:59.643Z,99.90
2023-02-13T07:58:28.062Z,99.90
2023-02-13T08:03:24.912Z,99.90
2023-02-13T08:05:54.598Z,99.90
2023-02-13T08:08:22.865Z,99.90
2023-02-13T08:11:08.691Z,99.90
2023-02-13T08:13:37.424Z,99.90
2023-02-13T08:16:06.123Z,99.90
2023-02-13T08:18:34.486Z,99.90
2023-02-13T08:21:05.006Z,99.90
2023-02-13T08:23:33.272Z,99.90
2023-02-13T08:26:02.449Z,99.90
2023-02-13T08:30:59.671Z,99.90
2023-02-13T08:33:27.991Z,99.90
2023-02-13T08:35:56.601Z,99.90
2023-02-13T08:38:26.609Z,99.90
2023-02-13T08:40:57.850Z,99.90
2023-02-13T08:43:26.319Z,99.90
2023-02-13T08:45:54.699Z,99.90
2023-02-13T08:48:22.994Z,99.90
2023-02-13T08:50:51.251Z,99.90
2023-02-13T08:53:19.486Z,99.90
2023-02-13T08:55:55.199Z,99.90
2023-02-13T08:58:23.717Z,99.90
2023-02-13T09:00:52.072Z,99.90
2023-02-13T09:03:20.365Z,99.90
2023-02-13T09:05:48.717Z,99.90
2023-02-13T09:08:18.618Z,99.90
2023-02-13T09:10:47.148Z,99.90
2023-02-13T09:13:16.781Z,99.90
2023-02-13T09:15:45.018Z,99.90
2023-02-13T09:18:13.267Z,99.90
2023-02-13T09:20:41.518Z,99.90
2023-02-13T09:23:09.765Z,99.90
2023-02-13T09:25:38.315Z,99.90
2023-02-13T09:28:06.988Z,99.90
2023-02-13T09:30:36.875Z,99.90
2023-02-13T09:33:05.150Z,99.90
2023-02-13T09:35:33.636Z,99.90
2023-02-13T09:38:02.165Z,99.90
2023-02-13T09:40:33.135Z,99.90
2023-02-13T09:43:05.962Z,99.90
2023-02-13T09:45:34.300Z,99.90
2023-02-13T09:48:03.958Z,99.90
2023-02-13T09:50:33.484Z,99.90
2023-02-13T09:53:01.813Z,99.90
2023-02-13T09:55:37.310Z,99.90
2023-02-13T09:58:20.873Z,99.90
2023-02-13T10:00:51.114Z,99.90
2023-02-13T10:03:23.992Z,99.90
2023-02-13T10:05:57.973Z,99.90
2023-02-13T10:08:41.988Z,99.90
2023-02-13T10:11:17.837Z,99.90
2023-02-13T10:13:52.081Z,99.90
2023-02-13T10:16:22.217Z,99.90
2023-02-13T10:18:53.450Z,99.90
2023-02-13T10:21:23.566Z,99.90
2023-02-13T10:23:56.274Z,99.90
2023-02-13T10:26:27.196Z,99.90
2023-02-13T10:29:11.210Z,99.90
2023-02-13T10:31:40.299Z,99.90
2023-02-13T10:34:13.040Z,99.90
2023-02-13T10:36:43.499Z,99.90
2023-02-13T10:39:20.364Z,99.90
2023-02-13T10:41:51.751Z,99.90
2023-02-13T10:44:40.534Z,99.90
2023-02-13T10:47:15.400Z,99.90
2023-02-13T10:49:51.245Z,99.90
2023-02-13T10:52:25.356Z,99.90
2023-02-13T10:55:06.776Z,99.90
2023-02-13T10:57:41.349Z,99.90
2023-02-13T11:00:12.947Z,99.90
2023-02-13T11:02:41.426Z,99.90
2023-02-13T11:05:17.008Z,99.90
2023-02-13T11:07:46.852Z,99.90
2023-02-13T11:10:17.349Z,99.90
2023-02-13T11:12:45.783Z,99.90
2023-02-13T11:15:24.210Z,99.90
2023-02-13T11:17:52.536Z,99.90
2023-02-13T11:20:31.231Z,99.90
2023-02-13T11:23:12.365Z,99.90
2023-02-13T11:25:40.642Z,99.90
2023-02-13T11:28:10.511Z,99.90
2023-02-13T11:30:39.434Z,99.90
2023-02-13T11:33:08.632Z,99.90
2023-02-13T11:35:38.783Z,99.90
2023-02-13T11:38:15.589Z,99.90
2023-02-13T11:40:45.194Z,99.90
2023-02-13T11:43:18.801Z,99.90
2023-02-13T11:45:48.275Z,99.90
2023-02-13T11:48:22.397Z,99.90
2023-02-13T11:50:56.180Z,99.90
2023-02-13T11:53:25.747Z,99.90
2023-02-13T11:56:05.379Z,99.90
2023-02-13T11:58:33.852Z,99.90
2023-02-13T12:01:24.852Z,99.90
2023-02-13T12:04:03.607Z,99.90
2023-02-13T12:06:39.674Z,99.90
2023-02-13T12:09:12.735Z,99.90
2023-02-13T12:11:43.678Z,99.90
2023-02-13T12:14:12.658Z,99.90
2023-02-13T12:16:42.340Z,99.90
2023-02-13T12:19:13.568Z,99.90
2023-02-13T12:21:50.062Z,99.90
2023-02-13T12:24:24.164Z,99.90
2023-02-13T12:26:53.653Z,99.90
2023-02-13T12:29:44.291Z,99.90
2023-02-13T12:32:16.270Z,99.90
2023-02-13T12:35:16.358Z,99.90
2023-02-13T12:38:00.643Z,99.90
2023-02-13T12:40:41.252Z,99.90
2023-02-13T12:43:19.528Z,99.90
2023-02-13T12:45:49.164Z,99.90
2023-02-13T12:48:27.793Z,99.90
2023-02-13T12:51:04.165Z,99.90
2023-02-13T12:53:52.446Z,99.90
2023-02-13T12:56:27.640Z,99.90
2023-02-13T12:59:01.981Z,99.90
2023-02-13T13:02:07.503Z,99.90
2023-02-13T13:04:43.399Z,99.90
2023-02-13T13:07:30.008Z,99.90
2023-02-13T13:10:04.902Z,99.90
2023-02-13T13:12:40.036Z,99.90
2023-02-13T13:15:11.341Z,99.90
2023-02-13T13:17:49.951Z,99.90
2023-02-13T13:20:39.519Z,99.90
2023-02-13T13:23:10.630Z,99.90
2023-02-13T13:25:44.907Z,99.90
2023-02-13T13:28:15.649Z,99.90
2023-02-13T13:30:44.010Z,99.90
2023-02-13T13:33:15.476Z,99.90
2023-02-13T13:35:43.922Z,99.90
2023-02-13T13:38:14.037Z,99.90
2023-02-13T13:40:47.090Z,99.90
2023-02-13T13:43:21.124Z,99.90
2023-02-13T13:45:51.009Z,99.90
2023-02-13T13:48:43.554Z,99.90
2023-02-13T13:51:12.197Z,99.90
2023-02-13T13:53:44.688Z,99.90
2023-02-13T13:56:14.403Z,99.90
2023-02-13T13:58:44.012Z,99.90
2023-02-13T14:01:24.305Z,99.90
2023-02-13T14:03:53.638Z,99.90
2023-02-13T14:06:22.871Z,99.90
2023-02-13T14:09:02.239Z,99.90
2023-02-13T14:11:41.896Z,99.90
2023-02-13T14:14:52.708Z,99.90
2023-02-13T14:17:50.753Z,99.90
2023-02-13T14:20:24.245Z,99.90
2023-02-13T14:22:52.478Z,99.90
2023-02-13T14:25:25.163Z,99.90
2023-02-13T14:28:02.048Z,99.90
2023-02-13T14:30:31.379Z,99.90
2023-02-13T14:33:01.346Z,99.90
2023-02-13T14:35:31.157Z,99.90
2023-02-13T14:38:00.189Z,99.90
2023-02-13T14:40:34.673Z,99.90
2023-02-13T14:43:22.879Z,99.90
2023-02-13T14:45:53.553Z,99.90
2023-02-13T14:48:21.818Z,99.90
2023-02-13T14:50:51.625Z,99.90
2023-02-13T14:53:25.222Z,99.90
2023-02-13T14:55:58.368Z,99.90
2023-02-13T14:58:30.086Z,99.90
2023-02-13T15:01:01.933Z,99.90
2023-02-13T15:03:32.229Z,99.90
2023-02-13T15:06:02.590Z,99.90
2023-02-13T15:08:32.842Z,99.90
2023-02-13T15:11:01.214Z,99.90
2023-02-13T15:13:35.979Z,99.90
2023-02-13T15:16:05.996Z,99.90
2023-02-13T15:18:36.554Z,99.90
2023-02-13T15:21:05.012Z,99.90
2023-02-13T15:23:34.069Z,98.30
2023-02-13T15:26:02.746Z,93.80
2023-02-13T15:28:31.064Z,59.80
2023-02-13T15:31:02.125Z,26.20
2023-02-13T15:33:33.634Z,13.50
2023-02-13T15:36:02.601Z,1.00
2023-02-13T15:38:31.803Z,1.00
2023-02-13T15:41:01.743Z,1.00
2023-02-13T15:43:34.283Z,1.00
2023-02-13T15:46:05.556Z,1.00
2023-02-13T15:48:34.678Z,1.00
2023-02-13T15:51:03.204Z,1.00
2023-02-13T15:53:31.747Z,1.00
2023-02-13T15:56:01.638Z,1.00
2023-02-13T15:58:31.783Z,1.00
2023-02-13T16:01:04.434Z,1.00
2023-02-13T16:03:33.581Z,1.00
2023-02-13T16:06:01.873Z,1.00
2023-02-13T16:08:35.469Z,1.00
2023-02-13T16:11:29.825Z,99.90
2023-02-13T16:14:04.964Z,99.90
2023-02-13T16:16:35.977Z,99.90
2023-02-13T16:19:04.268Z,99.90
2023-02-13T16:21:34.551Z,99.90
2023-02-13T16:24:04.132Z,99.90
2023-02-13T16:26:32.721Z,99.90
2023-02-13T16:29:00.966Z,99.90
2023-02-13T16:31:29.307Z,99.90
2023-02-13T16:33:59.097Z,99.90
2023-02-13T16:36:31.191Z,99.90
2023-02-13T16:38:59.435Z,99.90
2023-02-13T16:41:31.987Z,99.90
2023-02-13T16:44:00.246Z,99.90
2023-02-13T16:46:33.238Z,99.90
2023-02-13T16:49:17.065Z,99.90
2023-02-13T16:51:46.831Z,99.90
2023-02-13T16:54:29.192Z,99.90
2023-02-13T16:56:58.809Z,99.90
2023-02-13T16:59:52.751Z,99.90
2023-02-13T17:02:22.602Z,99.90
2023-02-13T17:04:53.882Z,99.90
2023-02-13T17:07:24.104Z,99.90
2023-02-13T17:09:56.905Z,99.90
2023-02-13T17:12:25.212Z,99.90
2023-02-13T17:14:53.578Z,99.90
2023-02-13T17:17:22.889Z,99.90
2023-02-13T17:19:52.634Z,99.90
2023-02-13T17:22:32.094Z,99.90
2023-02-13T17:25:00.587Z,99.90
2023-02-13T17:27:28.873Z,99.90
2023-02-13T17:29:57.191Z,99.90
2023-02-13T17:32:26.680Z,99.90
2023-02-13T17:34:56.368Z,99.90
2023-02-13T17:37:25.876Z,99.90
2023-02-13T17:39:54.492Z,99.90
2023-02-13T17:42:24.529Z,99.90
2023-02-13T17:44:53.099Z,99.90
2023-02-13T17:47:21.419Z,99.90
2023-02-13T17:49:50.064Z,99.90
2023-02-13T17:52:20.858Z,99.90
2023-02-13T17:54:49.347Z,99.90
2023-02-13T17:57:18.325Z,99.90
2023-02-13T17:59:46.775Z,99.90
2023-02-13T18:02:15.954Z,99.90
2023-02-13T18:04:44.528Z,99.90
2023-02-13T18:07:13.040Z,99.90
2023-02-13T18:09:42.785Z,99.90
2023-02-13T18:12:14.492Z,22.90
2023-02-13T18:14:42.845Z,99.90
2023-02-13T18:17:11.370Z,99.90
2023-02-13T18:19:39.728Z,99.90
2023-02-13T18:22:08.337Z,99.90
2023-02-13T18:24:39.378Z,99.90
2023-02-13T18:27:09.250Z,99.90
2023-02-13T18:29:37.603Z,1.00
2023-02-13T18:32:08.145Z,1.00
2023-02-13T18:34:38.060Z,1.00
2023-02-13T18:37:06.406Z,1.00
2023-02-13T18:39:34.907Z,1.00
2023-02-13T18:42:03.164Z,1.00
2023-02-13T18:44:33.087Z,1.00
2023-02-13T18:47:01.353Z,5.30
2023-02-13T18:49:29.585Z,43.40
2023-02-13T18:51:57.874Z,96.50
2023-02-13T18:54:26.116Z,99.90
2023-02-13T18:56:54.442Z,99.90
2023-02-13T18:59:23.175Z,99.90
2023-02-13T19:01:52.831Z,99.90
2023-02-13T19:04:21.095Z,99.90
2023-02-13T19:06:49.356Z,99.90
2023-02-13T19:09:17.644Z,99.90
2023-02-13T19:11:47.917Z,99.90
2023-02-13T19:14:16.393Z,99.90
2023-02-13T19:16:44.665Z,1.00
2023-02-13T19:19:14.313Z,1.00
2023-02-13T19:21:42.717Z,1.00
2023-02-13T19:24:12.027Z,1.00
2023-02-13T19:26:40.410Z,1.00
2023-02-13T19:29:08.816Z,1.00
2023-02-13T19:31:37.209Z,1.00
2023-02-13T19:34:06.716Z,1.00
2023-02-13T19:36:36.388Z,1.00
2023-02-13T19:39:06.310Z,1.00
2023-02-13T19:41:34.618Z,1.00
2023-02-13T19:44:02.824Z,1.00
2023-02-13T19:46:31.949Z,1.00
2023-02-13T19:49:00.357Z,1.00
2023-02-13T19:51:29.548Z,1.00
2023-02-13T19:53:59.422Z,1.00
2023-02-13T19:56:27.759Z,1.00
2023-02-13T19:58:56.007Z,1.00
2023-02-13T20:01:25.249Z,1.00
2023-02-13T20:03:53.809Z,1.00
2023-02-13T20:06:22.833Z,1.00
2023-02-13T20:08:51.242Z,1.00
2023-02-13T20:11:21.701Z,1.00
2023-02-13T20:13:49.939Z,1.00
2023-02-13T20:16:18.624Z,1.00
2023-02-13T20:18:46.951Z,1.00
2023-02-13T20:21:16.069Z,1.00
2023-02-13T20:23:44.672Z,2.80
2023-02-13T20:26:14.798Z,6.70
2023-02-13T20:28:45.095Z,10.80
2023-02-13T20:31:14.271Z,20.30
2023-02-13T20:33:43.102Z,25.60
2023-02-13T20:36:12.286Z,24.60
2023-02-13T20:38:40.556Z,24.70
2023-02-13T20:41:09.924Z,24.00
2023-02-13T20:43:38.238Z,25.80
2023-02-13T20:46:08.098Z,26.50
2023-02-13T20:48:37.027Z,28.40
2023-02-13T20:51:06.355Z,33.70
2023-02-13T20:53:34.598Z,35.10
2023-02-13T20:56:04.445Z,36.10
2023-02-13T20:58:32.874Z,36.40
2023-02-13T21:01:01.711Z,39.30
2023-02-13T21:03:31.633Z,40.10
2023-02-13T21:06:00.117Z,42.40
2023-02-13T21:08:28.420Z,45.20
2023-02-13T21:11:01.522Z,48.60
2023-02-13T21:13:29.860Z,51.30
2023-02-13T21:16:06.889Z,54.10
2023-02-13T21:18:36.796Z,54.50
2023-02-13T21:21:05.357Z,54.40
2023-02-13T21:23:33.636Z,56.10
2023-02-13T21:26:03.921Z,59.40
2023-02-13T21:28:32.273Z,64.00
2023-02-13T21:31:01.068Z,65.30
2023-02-13T21:33:29.507Z,68.40
2023-02-13T21:36:06.182Z,69.90
2023-02-13T21:38:34.486Z,71.90
2023-02-13T21:41:08.357Z,74.40
2023-02-13T21:43:37.838Z,76.70
2023-02-13T21:46:09.962Z,78.90
2023-02-13T21:48:38.266Z,86.20
2023-02-13T21:51:08.696Z,89.00
2023-02-13T21:53:36.961Z,90.00
2023-02-13T21:56:07.096Z,91.40
2023-02-13T21:58:35.396Z,91.40
2023-02-13T22:01:04.306Z,91.30
2023-02-13T22:03:32.609Z,92.70
2023-02-13T22:06:00.957Z,92.80
2023-02-13T22:08:30.596Z,93.20
2023-02-13T22:10:59.816Z,95.00
2023-02-13T22:13:28.384Z,96.30
2023-02-13T22:16:02.804Z,96.40
2023-02-13T22:18:32.215Z,96.70
2023-02-13T22:21:01.432Z,97.10
2023-02-13T22:23:31.069Z,97.70
2023-02-13T22:25:59.343Z,98.70
2023-02-13T22:28:27.850Z,99.90
2023-02-13T22:30:56.317Z,99.90
2023-02-13T22:33:24.750Z,99.90
2023-02-13T22:35:53.041Z,99.90
2023-02-13T22:38:21.324Z,99.90
2023-02-13T22:40:51.003Z,99.90
2023-02-13T22:43:19.301Z,99.90
2023-02-13T22:45:47.619Z,99.90
2023-02-13T22:48:15.870Z,99.90
2023-02-13T22:50:44.128Z,99.90
2023-02-13T22:53:12.337Z,99.90
2023-02-13T22:55:40.558Z,99.90
2023-02-13T22:58:10.223Z,99.90
2023-02-13T23:00:38.515Z,99.90
2023-02-13T23:03:06.817Z,99.90
2023-02-13T23:05:35.076Z,99.90
2023-02-13T23:08:03.340Z,99.90
2023-02-13T23:10:31.650Z,99.90
2023-02-13T23:12:58.857Z,99.90
2023-02-13T23:15:28.577Z,99.90
2023-02-13T23:18:13.690Z,99.90
2023-02-13T23:20:42.083Z,99.90
2023-02-13T23:23:10.485Z,99.90
2023-02-13T23:25:38.904Z,99.90
2023-02-13T23:28:07.530Z,99.90
2023-02-13T23:30:37.165Z,99.90
2023-02-13T23:33:05.479Z,99.90
2023-02-13T23:35:33.774Z,99.90
2023-02-13T23:38:01.992Z,99.90
2023-02-13T23:40:30.338Z,99.90
2023-02-13T23:42:58.558Z,99.90
2023-02-13T23:45:26.820Z,99.90
2023-02-13T23:47:56.441Z,99.90
2023-02-13T23:50:24.699Z,99.90
2023-02-13T23:52:52.993Z,99.90
2023-02-13T23:55:21.289Z,99.90
2023-02-13T23:57:52.057Z,99.90
